Time;durP1;ratioP1;P1;durP2;ratioP2;P2;SDS_P1;SDS_P2;PMS_P1;PMS_P2;Temp;Humidity;BMP_temperature;BMP_pressure;BME280_temperature;BME280_humidity;BME280_pressure;Samples;Min_cycle;Max_cycle;Signal;HPM_P1;HPM_P2
2023/01/14 00:00:28;;;;;;;19.52;9.85;;;10.60;68.70;;;;;;6103710;29;20135;-73
2023/01/14 00:03:31;;;;;;;18.45;8.73;;;10.60;68.70;;;;;;6104250;29;20037;-74
2023/01/14 00:06:35;;;;;;;18.17;8.70;;;10.60;68.80;;;;;;6086486;29;20481;-73
2023/01/14 00:09:36;;;;;;;23.02;9.48;;;10.50;68.80;;;;;;6104024;29;20048;-73
2023/01/14 00:12:37;;;;;;;20.05;8.05;;;10.50;68.80;;;;;;6072389;29;20071;-74
2023/01/14 00:15:38;;;;;;;22.73;9.55;;;10.50;68.80;;;;;;6106790;29;20048;-73
2023/01/14 00:18:39;;;;;;;19.88;9.05;;;10.50;68.80;;;;;;6090743;29;20052;-73
2023/01/14 00:21:43;;;;;;;23.23;8.85;;;10.50;68.80;;;;;;6107717;29;20040;-74
2023/01/14 00:24:47;;;;;;;18.75;8.70;;;10.50;68.80;;;;;;6104523;29;20123;-73
2023/01/14 00:27:48;;;;;;;20.95;8.55;;;10.40;68.80;;;;;;6104094;29;20339;-73
2023/01/14 00:30:48;;;;;;;14.75;7.43;;;10.40;68.80;;;;;;6104895;29;20052;-73
2023/01/14 00:33:50;;;;;;;18.33;8.80;;;10.40;68.90;;;;;;6088486;29;20044;-74
2023/01/14 00:36:52;;;;;;;22.35;8.75;;;10.40;69.00;;;;;;6104834;29;20051;-74
2023/01/14 00:39:54;;;;;;;20.85;9.02;;;10.40;69.00;;;;;;6066928;29;20639;-73
2023/01/14 00:42:55;;;;;;;20.10;9.02;;;10.40;69.10;;;;;;6085111;29;20047;-74
2023/01/14 00:45:56;;;;;;;18.73;8.50;;;10.40;69.20;;;;;;6070124;29;20455;-73
2023/01/14 00:48:59;;;;;;;26.88;9.00;;;10.30;69.20;;;;;;6104119;29;20052;-73
2023/01/14 00:52:02;;;;;;;17.08;8.10;;;10.30;69.10;;;;;;6070036;29;20052;-73
2023/01/14 00:55:03;;;;;;;21.48;8.35;;;10.30;69.20;;;;;;6087278;29;20048;-74
2023/01/14 00:58:06;;;;;;;19.30;8.55;;;10.30;69.30;;;;;;6102977;29;20119;-73
2023/01/14 01:01:07;;;;;;;18.92;7.95;;;10.20;69.30;;;;;;6081407;29;20045;-73
2023/01/14 01:04:08;;;;;;;14.60;6.53;;;10.30;69.40;;;;;;6098486;29;21512;-74
2023/01/14 01:07:13;;;;;;;13.43;7.45;;;10.30;69.10;;;;;;6080092;29;20477;-74
2023/01/14 01:10:14;;;;;;;12.32;5.80;;;10.20;68.80;;;;;;6085902;29;20052;-74
2023/01/14 01:13:16;;;;;;;17.92;7.30;;;10.10;68.80;;;;;;6101726;29;20044;-73
2023/01/14 01:16:23;;;;;;;11.48;6.88;;;10.10;68.80;;;;;;6101440;29;20043;-74
2023/01/14 01:19:24;;;;;;;13.63;7.55;;;10.00;68.50;;;;;;6086332;29;20466;-74
2023/01/14 01:22:25;;;;;;;13.88;7.03;;;9.90;68.60;;;;;;6089153;29;20055;-73
2023/01/14 01:25:26;;;;;;;17.38;7.13;;;9.90;68.70;;;;;;6095892;29;20047;-73
2023/01/14 01:28:27;;;;;;;13.93;7.10;;;9.80;68.70;;;;;;6085321;29;20052;-73
2023/01/14 01:31:28;;;;;;;11.60;6.47;;;9.80;68.80;;;;;;6084715;29;20048;-73
2023/01/14 01:34:29;;;;;;;22.15;6.90;;;9.70;68.90;;;;;;6069182;29;20044;-73
2023/01/14 01:37:31;;;;;;;13.52;6.07;;;9.70;69.10;;;;;;6069363;29;20111;-74
2023/01/14 01:40:31;;;;;;;12.52;6.20;;;9.60;69.20;;;;;;6085659;29;20044;-73
2023/01/14 01:43:33;;;;;;;17.63;7.68;;;9.60;69.30;;;;;;6084346;29;20048;-72
2023/01/14 01:46:35;;;;;;;12.55;6.18;;;9.60;69.40;;;;;;6069760;29;20073;-73
2023/01/14 01:49:38;;;;;;;15.38;6.82;;;9.50;69.50;;;;;;6067208;29;20055;-73
2023/01/14 01:52:39;;;;;;;15.60;6.47;;;9.50;69.50;;;;;;6100968;29;20055;-73
2023/01/14 01:55:46;;;;;;;8.73;4.88;;;9.40;69.60;;;;;;6083088;29;20075;-74
2023/01/14 01:58:48;;;;;;;15.43;5.75;;;9.30;69.60;;;;;;6084835;29;20044;-73
2023/01/14 02:01:54;;;;;;;13.40;6.45;;;9.30;69.80;;;;;;6101209;29;20112;-75
2023/01/14 02:04:55;;;;;;;12.23;5.68;;;9.30;70.00;;;;;;6100793;29;20131;-74
2023/01/14 02:07:57;;;;;;;13.68;5.43;;;9.30;70.10;;;;;;6084012;29;20446;-75
2023/01/14 02:11:13;;;;;;;9.32;5.30;;;9.20;70.50;;;;;;6101158;29;20043;-74
2023/01/14 02:14:35;;;;;;;11.25;5.45;;;9.30;70.30;;;;;;6082696;29;20044;-74
2023/01/14 02:18:11;;;;;;;10.27;5.15;;;9.20;70.30;;;;;;6066056;29;20096;-74
2023/01/14 02:21:22;;;;;;;11.13;5.40;;;9.20;70.20;;;;;;6053199;29;20048;-74
2023/01/14 02:25:03;;;;;;;9.40;5.85;;;9.20;70.10;;;;;;6069929;29;20414;-74
2023/01/14 02:28:24;;;;;;;21.67;6.80;;;9.20;70.20;;;;;;6086248;29;20052;-72
2023/01/14 02:31:30;;;;;;;12.57;6.05;;;9.20;70.20;;;;;;6066338;29;20036;-73
2023/01/14 02:34:45;;;;;;;15.55;6.75;;;9.20;70.20;;;;;;6080893;29;20099;-74
2023/01/14 02:38:02;;;;;;;21.08;8.30;;;9.20;70.20;;;;;;6061497;29;20052;-72
2023/01/14 02:45:01;;;;;;;30.17;10.40;;;9.30;70.00;;;;;;6093554;29;20055;-74
2023/01/14 02:48:04;;;;;;;26.98;11.50;;;9.20;70.00;;;;;;6080208;29;20478;-73
2023/01/14 02:51:10;;;;;;;34.53;10.25;;;9.20;70.20;;;;;;6079893;29;20044;-75
2023/01/14 02:54:11;;;;;;;24.27;9.10;;;9.20;70.40;;;;;;6081519;29;20043;-73
2023/01/14 02:57:32;;;;;;;18.60;8.25;;;9.20;70.40;;;;;;6066059;29;20107;-73
2023/01/14 03:00:43;;;;;;;30.20;10.63;;;9.20;70.50;;;;;;6080440;29;20056;-74
2023/01/14 03:04:37;;;;;;;32.42;8.38;;;9.20;70.60;;;;;;6098110;29;20036;-74
2023/01/14 03:07:45;;;;;;;19.33;8.07;;;9.20;70.60;;;;;;5942392;29;20047;-74
2023/01/14 03:10:59;;;;;;;18.65;8.15;;;9.20;70.50;;;;;;5943178;29;20055;-75
2023/01/14 03:14:10;;;;;;;16.85;8.20;;;9.20;70.50;;;;;;5939108;29;20039;-73
2023/01/14 03:17:28;;;;;;;23.45;8.95;;;9.20;70.20;;;;;;5942019;29;20039;-73
2023/01/14 03:20:36;;;;;;;21.95;8.07;;;9.20;70.20;;;;;;5958084;29;20100;-74
2023/01/14 03:24:00;;;;;;;16.67;7.57;;;9.10;70.50;;;;;;5957728;29;20039;-73
2023/01/14 03:27:09;;;;;;;18.77;7.13;;;9.10;70.70;;;;;;5950611;29;20054;-72
2023/01/14 03:30:16;;;;;;;23.63;7.75;;;9.20;70.70;;;;;;5944136;29;20066;-73
2023/01/14 03:33:27;;;;;;;15.95;7.82;;;9.20;70.70;;;;;;5950821;29;20529;-73
2023/01/14 03:36:32;;;;;;;20.45;8.38;;;9.20;70.50;;;;;;5950643;29;20034;-73
2023/01/14 03:39:33;;;;;;;17.83;7.85;;;9.30;70.50;;;;;;5968663;29;20043;-74
2023/01/14 03:42:40;;;;;;;36.17;9.95;;;9.30;70.30;;;;;;6105669;29;20040;-74
2023/01/14 03:45:42;;;;;;;23.23;7.88;;;9.30;70.30;;;;;;6105402;29;20044;-74
2023/01/14 03:48:43;;;;;;;24.60;8.65;;;9.20;70.20;;;;;;6106014;29;20127;-74
2023/01/14 03:51:50;;;;;;;19.70;8.07;;;9.10;70.40;;;;;;6104903;29;20048;-74
2023/01/14 03:55:09;;;;;;;31.73;8.13;;;9.10;70.70;;;;;;6105131;29;20553;-73
2023/01/14 03:58:34;;;;;;;16.25;8.20;;;9.10;70.70;;;;;;6104073;29;20103;-74
2023/01/14 04:01:45;;;;;;;30.25;8.70;;;9.10;70.80;;;;;;6105562;29;20040;-74
2023/01/14 04:04:47;;;;;;;29.25;8.43;;;9.10;70.90;;;;;;6088878;29;20040;-73
2023/01/14 04:07:53;;;;;;;26.13;8.68;;;9.10;71.10;;;;;;6105519;29;20119;-74
2023/01/14 04:10:53;;;;;;;23.02;6.80;;;9.10;70.90;;;;;;6104743;29;20048;-73
2023/01/14 04:17:14;;;;;;;15.23;7.30;;;9.10;70.80;;;;;;6106258;29;20044;-73
2023/01/14 04:20:15;;;;;;;21.23;8.50;;;9.10;70.80;;;;;;6088509;29;20099;-74
2023/01/14 04:23:15;;;;;;;14.98;6.90;;;9.00;70.80;;;;;;6087320;29;20096;-73
2023/01/14 04:26:19;;;;;;;18.58;7.65;;;8.90;70.90;;;;;;6089102;29;20455;-73
2023/01/14 04:29:20;;;;;;;15.57;6.18;;;8.90;70.90;;;;;;6104287;29;20056;-73
2023/01/14 04:32:21;;;;;;;15.05;7.13;;;8.80;70.90;;;;;;6105848;29;20108;-74
2023/01/14 04:35:22;;;;;;;14.95;6.30;;;8.80;71.10;;;;;;6105080;29;20054;-73
2023/01/14 04:38:23;;;;;;;18.88;6.15;;;8.70;71.00;;;;;;6089061;29;20126;-73
2023/01/14 04:44:44;;;;;;;15.10;6.68;;;8.60;71.00;;;;;;6100719;29;20044;-73
2023/01/14 04:47:47;;;;;;;16.00;7.60;;;8.60;71.40;;;;;;6100783;29;20787;-74
2023/01/14 04:50:50;;;;;;;14.73;6.45;;;8.50;71.40;;;;;;6084694;29;20474;-74
2023/01/14 04:53:51;;;;;;;13.35;6.75;;;8.50;71.40;;;;;;6083409;29;20044;-75
2023/01/14 04:56:53;;;;;;;15.38;5.70;;;8.50;71.60;;;;;;6087928;29;20055;-74
2023/01/14 04:59:53;;;;;;;21.38;6.68;;;8.50;71.60;;;;;;6102250;29;20070;-74
2023/01/14 05:02:54;;;;;;;15.27;6.57;;;8.60;71.60;;;;;;6100959;29;20049;-73
2023/01/14 05:05:55;;;;;;;13.52;6.07;;;8.60;71.50;;;;;;6101820;29;20063;-73
2023/01/14 05:08:56;;;;;;;12.80;6.05;;;8.60;71.40;;;;;;6085209;29;20525;-73
2023/01/14 05:11:57;;;;;;;14.90;5.85;;;8.70;71.40;;;;;;6085207;29;20459;-74
2023/01/14 05:15:00;;;;;;;13.23;5.60;;;8.70;71.20;;;;;;6084840;29;20604;-73
2023/01/14 05:18:01;;;;;;;11.93;5.93;;;8.80;71.10;;;;;;6100686;29;20407;-73
2023/01/14 05:21:01;;;;;;;16.73;5.47;;;8.80;70.90;;;;;;6083383;29;20048;-73
2023/01/14 05:24:02;;;;;;;16.92;4.25;;;8.90;70.80;;;;;;6100121;29;20098;-74
2023/01/14 05:27:03;;;;;;;8.30;4.72;;;8.90;70.70;;;;;;6100802;29;20438;-74
2023/01/14 05:30:05;;;;;;;13.35;5.15;;;8.90;70.70;;;;;;6083633;29;20092;-73
2023/01/14 05:33:06;;;;;;;18.48;6.10;;;8.90;70.70;;;;;;6083578;29;20526;-74
2023/01/14 05:36:07;;;;;;;11.20;5.30;;;9.00;70.40;;;;;;6099563;29;20135;-73
2023/01/14 05:39:08;;;;;;;12.18;5.13;;;9.00;70.30;;;;;;6099911;29;20044;-74
2023/01/14 05:45:38;;;;;;;11.93;4.72;;;9.10;69.90;;;;;;6098476;29;20427;-73
2023/01/14 05:48:39;;;;;;;10.50;4.85;;;9.10;69.60;;;;;;6069692;29;20180;-74
2023/01/14 05:51:40;;;;;;;9.65;4.68;;;9.00;69.30;;;;;;6095638;29;20414;-73
2023/01/14 05:54:40;;;;;;;10.02;4.60;;;9.00;69.30;;;;;;6082120;29;20095;-74
2023/01/14 05:57:42;;;;;;;11.68;5.22;;;9.00;69.20;;;;;;6080703;29;20040;-74
2023/01/14 06:07:23;;;;;;;14.95;5.07;;;8.80;69.40;;;;;;6098380;29;20056;-74
2023/01/14 06:10:24;;;;;;;16.25;5.32;;;8.80;69.40;;;;;;6097270;29;20051;-72
2023/01/14 06:13:25;;;;;;;10.27;4.80;;;8.80;69.30;;;;;;6098453;29;20052;-74
2023/01/14 06:16:28;;;;;;;6.68;3.95;;;8.70;69.00;;;;;;6056249;29;20060;-73
2023/01/14 06:19:29;;;;;;;7.03;3.80;;;8.60;69.00;;;;;;6098427;29;20123;-73
2023/01/14 06:22:30;;;;;;;8.05;4.15;;;8.60;69.10;;;;;;6096915;29;20039;-74
2023/01/14 06:25:32;;;;;;;9.20;5.20;;;8.50;69.10;;;;;;6097919;29;20188;-73
2023/01/14 06:28:33;;;;;;;11.52;5.32;;;8.50;69.40;;;;;;6086555;29;20359;-74
2023/01/14 06:31:35;;;;;;;9.68;5.20;;;8.40;69.20;;;;;;6050469;29;20044;-75
2023/01/14 06:34:36;;;;;;;8.50;4.35;;;8.40;69.40;;;;;;6058956;29;20128;-74
2023/01/14 06:37:37;;;;;;;8.55;4.32;;;8.50;69.50;;;;;;6097062;29;20036;-73
2023/01/14 06:40:39;;;;;;;13.48;4.53;;;8.40;69.40;;;;;;6097867;29;20069;-73
2023/01/14 06:43:41;;;;;;;9.55;3.50;;;8.40;69.20;;;;;;6095944;29;20044;-74
2023/01/14 06:46:43;;;;;;;8.68;4.32;;;8.40;69.10;;;;;;6086211;29;20044;-74
2023/01/14 06:49:43;;;;;;;7.35;3.90;;;8.40;69.20;;;;;;6097720;29;20099;-73
2023/01/14 06:52:45;;;;;;;12.52;4.78;;;8.40;69.20;;;;;;6098130;29;20055;-74
2023/01/14 06:55:46;;;;;;;9.77;4.85;;;8.40;69.30;;;;;;6097351;29;20044;-73
2023/01/14 06:58:48;;;;;;;7.43;3.65;;;8.40;69.20;;;;;;6082149;29;20139;-74
2023/01/14 07:01:48;;;;;;;9.57;3.58;;;8.40;69.20;;;;;;6098767;29;20040;-73
2023/01/14 07:04:49;;;;;;;7.13;3.65;;;8.40;69.20;;;;;;6099632;29;20048;-73
2023/01/14 07:07:50;;;;;;;8.18;3.35;;;8.50;69.10;;;;;;6098448;29;20063;-73
2023/01/14 07:10:51;;;;;;;5.50;3.05;;;8.50;68.80;;;;;;6099188;29;20108;-73
2023/01/14 07:13:52;;;;;;;6.20;4.38;;;8.50;68.80;;;;;;6092878;29;20666;-73
2023/01/14 07:16:53;;;;;;;7.05;3.30;;;8.50;69.00;;;;;;6107813;29;20047;-74
2023/01/14 07:19:54;;;;;;;5.43;2.92;;;8.50;69.00;;;;;;6111845;29;20552;-73
2023/01/14 07:22:54;;;;;;;8.20;3.38;;;8.50;69.00;;;;;;6087934;29;20346;-74
2023/01/14 07:25:56;;;;;;;11.27;4.80;;;8.60;68.90;;;;;;6105092;29;20048;-73
2023/01/14 07:28:56;;;;;;;11.65;4.10;;;8.70;69.10;;;;;;6092833;29;20039;-73
2023/01/14 07:31:57;;;;;;;32.33;5.60;;;8.70;69.00;;;;;;6074978;29;20075;-74
2023/01/14 07:34:59;;;;;;;7.43;3.80;;;8.80;68.80;;;;;;6105527;29;20131;-73
2023/01/14 07:38:00;;;;;;;5.95;3.55;;;8.80;68.60;;;;;;6108372;29;20402;-73
2023/01/14 07:41:00;;;;;;;8.23;4.07;;;8.90;68.50;;;;;;6110351;29;20059;-73
2023/01/14 07:44:04;;;;;;;9.13;4.22;;;9.00;68.10;;;;;;6106553;29;20476;-74
2023/01/14 07:47:04;;;;;;;8.23;4.72;;;8.90;67.90;;;;;;6108329;29;20048;-73
2023/01/14 07:50:06;;;;;;;7.13;3.42;;;9.00;68.10;;;;;;6110814;29;20191;-72
2023/01/14 07:53:08;;;;;;;9.02;3.65;;;9.00;67.80;;;;;;6106741;29;20040;-73
2023/01/14 07:56:09;;;;;;;7.07;4.18;;;9.00;67.70;;;;;;6083149;29;20036;-73
2023/01/14 07:59:10;;;;;;;6.93;3.67;;;8.90;67.80;;;;;;6106742;29;20054;-73
2023/01/14 08:02:12;;;;;;;7.32;4.28;;;8.90;67.70;;;;;;6114780;29;20044;-72
2023/01/14 08:05:13;;;;;;;9.38;4.10;;;9.00;67.80;;;;;;6107115;29;20056;-73
2023/01/14 08:08:14;;;;;;;13.40;3.60;;;9.00;67.70;;;;;;6087232;29;20487;-74
2023/01/14 08:11:15;;;;;;;5.28;2.97;;;9.10;67.60;;;;;;6104415;29;20048;-73
2023/01/14 08:14:16;;;;;;;6.75;3.55;;;9.10;67.40;;;;;;6108421;29;20044;-73
2023/01/14 08:17:19;;;;;;;6.57;3.33;;;9.10;67.40;;;;;;6105495;29;20036;-73
2023/01/14 08:20:22;;;;;;;5.72;3.90;;;9.20;67.30;;;;;;6095701;29;20055;-72
2023/01/14 08:23:23;;;;;;;8.73;3.63;;;9.30;67.00;;;;;;6098860;29;20044;-74
2023/01/14 08:26:24;;;;;;;4.28;3.10;;;9.30;66.70;;;;;;6113310;29;20100;-73
2023/01/14 08:29:25;;;;;;;12.02;4.60;;;9.20;66.40;;;;;;6077568;29;20440;-73
2023/01/14 08:32:26;;;;;;;8.88;4.90;;;9.30;66.60;;;;;;6095728;29;20060;-72
2023/01/14 08:35:27;;;;;;;10.00;4.43;;;9.30;66.80;;;;;;6096632;29;20110;-74
2023/01/14 08:38:28;;;;;;;8.75;4.50;;;9.30;66.90;;;;;;6117855;29;20392;-74
2023/01/14 08:41:28;;;;;;;7.78;4.35;;;9.40;66.80;;;;;;6114081;29;20044;-72
2023/01/14 08:44:29;;;;;;;9.35;4.93;;;9.50;66.50;;;;;;6108121;29;20100;-75
2023/01/14 08:47:30;;;;;;;11.40;5.50;;;9.50;66.20;;;;;;6110608;29;20055;-72
2023/01/14 08:50:31;;;;;;;11.93;4.97;;;9.50;66.30;;;;;;6090756;29;20363;-72
2023/01/14 08:53:35;;;;;;;9.27;3.70;;;9.50;66.40;;;;;;6079282;29;20123;-72
2023/01/14 08:56:35;;;;;;;9.63;3.92;;;9.60;66.40;;;;;;6110361;29;20039;-74
2023/01/14 08:59:38;;;;;;;6.47;3.40;;;9.70;66.10;;;;;;6099178;29;20100;-74
2023/01/14 09:02:39;;;;;;;4.88;2.80;;;9.90;65.90;;;;;;6078036;29;20352;-72
2023/01/14 09:05:40;;;;;;;7.45;3.08;;;10.00;65.60;;;;;;6095662;29;20123;-73
2023/01/14 09:18:41;;;;;;;4.50;2.20;;;10.50;63.60;;;;;;6110252;29;20036;-72
2023/01/14 09:21:42;;;;;;;5.78;2.78;;;10.60;63.20;;;;;;6113202;29;20222;-73
2023/01/14 09:24:43;;;;;;;6.30;2.67;;;10.70;62.80;;;;;;6110510;29;20066;-73
2023/01/14 09:27:44;;;;;;;6.38;3.38;;;10.90;62.40;;;;;;6091345;29;20565;-73
2023/01/14 09:30:46;;;;;;;6.63;3.42;;;11.00;61.60;;;;;;6082271;29;20040;-72
2023/01/14 09:33:47;;;;;;;9.65;4.55;;;11.10;61.10;;;;;;6110422;29;20119;-72
2023/01/14 09:36:49;;;;;;;18.98;5.60;;;11.20;60.80;;;;;;6101701;29;20044;-72
2023/01/14 09:39:51;;;;;;;13.82;6.50;;;11.20;60.90;;;;;;6094946;29;20155;-72
2023/01/14 09:42:52;;;;;;;10.05;5.60;;;11.30;60.70;;;;;;6110474;29;20099;-72
2023/01/14 09:46:00;;;;;;;13.63;6.45;;;11.30;60.60;;;;;;6083685;29;20048;-74
2023/01/14 09:49:04;;;;;;;13.00;6.00;;;11.40;60.80;;;;;;6098898;29;20520;-75
2023/01/14 09:52:43;;;;;;;12.50;5.80;;;11.40;60.60;;;;;;6083530;29;20406;-75
2023/01/14 09:55:56;;;;;;;11.02;5.88;;;11.40;60.50;;;;;;6092298;29;20064;-74
2023/01/14 09:59:17;;;;;;;13.70;6.78;;;11.40;60.60;;;;;;6090238;29;20036;-74
2023/01/14 10:02:34;;;;;;;19.65;8.68;;;11.30;60.60;;;;;;6081455;29;20044;-74
2023/01/14 10:05:39;;;;;;;15.85;8.82;;;11.20;60.90;;;;;;6084751;29;20035;-74
2023/01/14 10:08:49;;;;;;;16.48;8.32;;;11.20;61.30;;;;;;6090995;29;20122;-74
2023/01/14 10:11:51;;;;;;;14.95;6.28;;;11.20;61.60;;;;;;6108064;29;20087;-74
2023/01/14 10:15:13;;;;;;;15.35;7.10;;;11.30;61.40;;;;;;6105073;29;20047;-73
2023/01/14 10:18:52;;;;;;;16.17;7.03;;;11.30;61.20;;;;;;6106751;29;20487;-73
2023/01/14 10:22:22;;;;;;;13.30;6.43;;;11.30;61.20;;;;;;5983538;29;20472;-74
2023/01/14 10:25:23;;;;;;;19.27;6.63;;;11.20;61.30;;;;;;5901970;30;20053;-73
2023/01/14 10:28:27;;;;;;;15.82;7.32;;;11.20;62.20;;;;;;5915990;30;20059;-75
2023/01/14 10:31:30;;;;;;;19.38;8.45;;;11.20;61.60;;;;;;5913607;30;20051;-75
2023/01/14 10:34:39;;;;;;;20.20;9.75;;;11.20;61.70;;;;;;5917641;30;20074;-75
2023/01/14 10:37:39;;;;;;;;;;;11.30;61.80;;;;;;5911376;30;20058;-74
2023/01/14 10:40:40;;;;;;;17.33;8.05;;;11.40;61.80;;;;;;5911635;30;19926;-74
2023/01/14 10:43:44;;;;;;;16.17;6.65;;;11.50;61.70;;;;;;5911646;30;20051;-76
2023/01/14 10:46:46;;;;;;;13.60;6.55;;;11.60;61.60;;;;;;5910667;30;20462;-74
2023/01/14 10:49:54;;;;;;;23.33;6.53;;;11.70;61.30;;;;;;5917177;30;20501;-75
2023/01/14 10:53:13;;;;;;;;;;;11.70;61.20;;;;;;5915333;30;20085;-74
2023/01/14 10:56:14;;;;;;;15.02;7.90;;;11.60;61.00;;;;;;5958418;29;19928;-75
2023/01/14 10:59:31;;;;;;;19.08;6.60;;;11.70;61.20;;;;;;5977703;29;20582;-74
2023/01/14 11:02:49;;;;;;;15.40;8.20;;;11.80;61.30;;;;;;6038210;29;20045;-73
2023/01/14 11:06:02;;;;;;;14.37;6.23;;;11.80;61.20;;;;;;6070374;29;20036;-75
2023/01/14 11:09:03;;;;;;;15.68;5.72;;;12.00;61.10;;;;;;6079437;29;20401;-74
2023/01/14 11:12:04;;;;;;;15.15;6.57;;;12.10;60.90;;;;;;6112231;29;20110;-74
2023/01/14 11:15:26;;;;;;;14.75;7.07;;;12.10;60.80;;;;;;6079440;29;20083;-75
2023/01/14 11:18:32;;;;;;;16.23;7.32;;;12.20;60.80;;;;;;6106032;29;20048;-74
2023/01/14 11:21:42;;;;;;;13.85;6.53;;;12.30;60.80;;;;;;6079299;29;20180;-74
2023/01/14 11:24:54;;;;;;;15.27;7.40;;;12.30;60.70;;;;;;6090428;29;20075;-73
2023/01/14 11:27:59;;;;;;;14.02;6.93;;;12.40;60.20;;;;;;6095869;29;20048;-75
2023/01/14 11:31:00;;;;;;;14.85;5.63;;;12.30;60.00;;;;;;6096057;29;20047;-74
2023/01/14 11:34:02;;;;;;;16.55;7.57;;;12.20;60.00;;;;;;6093539;29;20040;-75
2023/01/14 11:37:18;;;;;;;19.85;9.90;;;12.20;60.10;;;;;;6062307;29;20108;-74
2023/01/14 11:43:54;;;;;;;12.55;6.15;;;12.10;60.70;;;;;;6094877;29;20489;-74
2023/01/14 11:47:12;;;;;;;11.80;5.45;;;12.20;60.90;;;;;;6096223;29;20670;-74
2023/01/14 11:50:30;;;;;;;11.27;4.93;;;12.40;61.00;;;;;;6071913;29;20540;-74
2023/01/14 11:53:44;;;;;;;11.17;4.77;;;12.80;60.40;;;;;;6082351;29;20036;-74
2023/01/14 11:56:46;;;;;;;23.13;7.72;;;13.00;59.50;;;;;;6081472;29;20107;-74
2023/01/14 11:59:49;;;;;;;16.63;5.43;;;13.20;58.90;;;;;;6098224;29;20078;-75
2023/01/14 12:02:58;;;;;;;15.80;7.25;;;13.30;58.50;;;;;;6066770;29;20040;-73
2023/01/14 12:06:01;;;;;;;13.88;5.85;;;13.40;58.40;;;;;;6083630;29;20127;-74
2023/01/14 12:09:04;;;;;;;17.08;6.90;;;13.50;58.10;;;;;;6101291;29;20048;-74
2023/01/14 12:12:16;;;;;;;21.30;7.38;;;13.50;57.70;;;;;;6100736;29;20060;-74
2023/01/14 12:19:04;;;;;;;10.13;5.78;;;13.40;57.80;;;;;;6100151;29;20040;-74
2023/01/14 12:22:15;;;;;;;14.63;5.97;;;13.50;57.90;;;;;;6099633;29;20434;-74
2023/01/14 12:25:31;;;;;;;9.20;4.63;;;13.50;57.60;;;;;;6081257;29;20052;-73
2023/01/14 12:28:39;;;;;;;22.10;8.13;;;13.40;57.60;;;;;;6099815;29;20052;-74
2023/01/14 12:31:52;;;;;;;37.22;12.20;;;13.40;57.70;;;;;;6100251;29;20096;-75
2023/01/14 12:34:59;;;;;;;19.60;8.15;;;13.30;57.50;;;;;;6083814;29;20044;-74
2023/01/14 12:45:41;;;;;;;14.75;6.15;;;13.40;57.20;;;;;;6101914;29;20219;-73
2023/01/14 12:48:25;;;;;;;14.73;5.38;;;13.60;56.90;;;;;;6082416;29;20107;-76
2023/01/14 12:51:31;;;;;;;7.68;3.78;;;13.70;56.60;;;;;;6049513;29;20055;-74
2023/01/14 12:54:34;;;;;;;10.07;4.80;;;13.80;56.30;;;;;;6079116;29;20048;-74
2023/01/14 12:57:38;;;;;;;10.07;4.72;;;13.90;55.80;;;;;;6098245;29;20748;-74
2023/01/14 13:00:39;;;;;;;11.23;3.97;;;13.90;55.60;;;;;;6083032;29;20051;-74
2023/01/14 13:03:52;;;;;;;11.30;4.10;;;13.90;55.50;;;;;;6098768;29;20127;-74
2023/01/14 13:07:02;;;;;;;18.17;6.03;;;14.00;55.30;;;;;;6097899;29;20575;-73
2023/01/14 13:10:07;;;;;;;17.10;5.85;;;14.00;55.10;;;;;;6098542;29;20052;-74
2023/01/14 13:13:23;;;;;;;13.45;5.00;;;14.10;54.80;;;;;;6099197;29;20071;-74
2023/01/14 13:16:37;;;;;;;6.45;3.03;;;14.20;54.70;;;;;;6074838;29;20147;-74
2023/01/14 13:19:53;;;;;;;10.95;3.50;;;14.20;54.40;;;;;;6082132;29;20466;-73
2023/01/14 13:22:55;;;;;;;11.90;3.15;;;14.30;54.90;;;;;;6082605;29;20040;-73
2023/01/14 13:25:57;;;;;;;6.75;2.83;;;14.30;53.70;;;;;;6082101;29;20044;-74
2023/01/14 13:29:20;;;;;;;5.85;2.25;;;14.20;53.20;;;;;;6081160;29;20088;-74
2023/01/14 13:32:50;;;;;;;6.95;2.08;;;14.20;52.90;;;;;;6098521;29;20063;-74
2023/01/14 13:36:20;;;;;;;4.22;1.70;;;14.20;52.60;;;;;;6061730;29;20048;-73
2023/01/14 13:39:22;;;;;;;5.03;2.35;;;14.20;52.30;;;;;;6035103;29;20100;-74
2023/01/14 13:42:38;;;;;;;5.90;2.35;;;14.20;52.00;;;;;;6020499;29;20114;-73
2023/01/14 13:45:39;;;;;;;9.63;3.13;;;14.20;52.00;;;;;;6019543;29;20045;-75
2023/01/14 13:48:48;;;;;;;6.80;2.67;;;14.30;52.30;;;;;;6031506;29;20054;-73
2023/01/14 13:51:51;;;;;;;5.55;2.40;;;14.30;52.30;;;;;;6009659;29;20133;-73
2023/01/14 13:54:58;;;;;;;6.72;2.88;;;14.40;52.20;;;;;;6029013;29;20045;-73
2023/01/14 13:58:06;;;;;;;7.32;2.83;;;14.40;52.10;;;;;;6035217;29;20376;-73
2023/01/14 14:01:27;;;;;;;11.82;3.17;;;14.30;52.10;;;;;;6022512;29;20072;-74
2023/01/14 14:04:55;;;;;;;12.35;3.33;;;14.30;52.00;;;;;;6035998;29;20060;-74
2023/01/14 14:08:08;;;;;;;7.18;3.33;;;14.30;52.00;;;;;;6024696;29;20037;-72
2023/01/14 14:11:12;;;;;;;6.28;3.45;;;14.20;52.10;;;;;;6043419;29;20518;-73
2023/01/14 14:14:25;;;;;;;5.80;2.78;;;14.30;52.20;;;;;;6032990;29;20056;-75
2023/01/14 14:17:34;;;;;;;11.55;2.90;;;14.30;52.20;;;;;;6105931;29;20362;-75
2023/01/14 14:20:39;;;;;;;;;;;14.40;52.10;;;;;;6108101;29;20135;-74
2023/01/14 14:23:45;;;;;;;8.05;2.60;;;14.40;52.00;;;;;;6098256;29;19926;-73
2023/01/14 14:26:46;;;;;;;8.80;3.15;;;14.50;51.80;;;;;;6094280;29;20608;-73
2023/01/14 14:29:48;;;;;;;7.95;2.42;;;14.40;51.80;;;;;;6079402;29;20052;-74
2023/01/14 14:32:49;;;;;;;4.22;2.30;;;14.50;51.90;;;;;;6096138;29;20071;-73
2023/01/14 14:35:51;;;;;;;11.00;2.53;;;14.50;51.70;;;;;;6081783;29;20060;-74
2023/01/14 14:38:54;;;;;;;9.23;2.38;;;14.40;51.80;;;;;;6089649;29;20040;-74
2023/01/14 14:41:56;;;;;;;9.02;2.53;;;14.40;51.80;;;;;;6096063;29;20048;-73
2023/01/14 14:44:59;;;;;;;5.55;2.65;;;14.50;51.90;;;;;;6080817;29;20040;-73
2023/01/14 14:48:01;;;;;;;3.83;2.33;;;14.40;52.00;;;;;;6098403;29;20048;-74
2023/01/14 14:51:26;;;;;;;9.52;2.40;;;14.40;51.90;;;;;;6081168;29;20047;-74
2023/01/14 14:54:32;;;;;;;12.95;3.10;;;14.30;52.00;;;;;;6078654;29;20541;-73
2023/01/14 14:57:35;;;;;;;5.72;3.22;;;14.30;52.00;;;;;;6097620;29;20039;-73
2023/01/14 15:00:37;;;;;;;8.82;3.20;;;14.30;52.00;;;;;;6085720;29;20498;-74
2023/01/14 15:03:39;;;;;;;8.07;3.08;;;14.30;52.10;;;;;;6095166;29;20047;-74
2023/01/14 15:06:40;;;;;;;7.40;2.72;;;14.20;52.00;;;;;;6081365;29;20481;-74
2023/01/14 15:09:45;;;;;;;4.43;2.65;;;14.20;51.90;;;;;;6097772;29;20055;-74
2023/01/14 15:12:45;;;;;;;3.72;2.30;;;14.10;52.00;;;;;;6080416;29;20147;-74
2023/01/14 15:16:10;;;;;;;7.20;2.47;;;14.00;52.00;;;;;;6096718;29;20095;-74
2023/01/14 15:19:10;;;;;;;5.88;2.45;;;14.00;52.00;;;;;;6097582;29;20063;-73
2023/01/14 15:22:13;;;;;;;6.88;2.30;;;14.00;52.10;;;;;;6081232;29;20095;-73
2023/01/14 15:25:17;;;;;;;5.45;3.22;;;14.00;52.20;;;;;;6097308;29;20044;-73
2023/01/14 15:28:19;;;;;;;7.32;3.17;;;14.00;52.20;;;;;;6097064;29;20040;-74
2023/01/14 15:31:22;;;;;;;9.23;3.17;;;14.00;52.20;;;;;;6097523;29;20050;-73
2023/01/14 15:34:29;;;;;;;12.90;3.03;;;14.00;52.30;;;;;;6097972;29;20048;-74
2023/01/14 15:37:30;;;;;;;9.85;3.65;;;14.00;52.40;;;;;;6098860;29;20147;-74
2023/01/14 15:40:37;;;;;;;15.77;4.25;;;14.00;53.10;;;;;;6099051;29;20111;-73
2023/01/14 15:43:40;;;;;;;10.48;3.15;;;14.00;52.60;;;;;;6082503;29;20044;-72
2023/01/14 15:46:41;;;;;;;12.73;3.92;;;13.90;52.60;;;;;;6097612;29;20368;-73
2023/01/14 15:49:46;;;;;;;5.45;3.08;;;13.90;52.60;;;;;;6097964;29;20056;-74
2023/01/14 15:52:47;;;;;;;8.25;3.03;;;13.90;52.60;;;;;;6099184;29;20048;-73
2023/01/14 15:56:01;;;;;;;8.27;3.20;;;13.90;52.70;;;;;;6065482;29;20099;-74
2023/01/14 15:59:10;;;;;;;9.07;2.53;;;13.90;52.80;;;;;;6080607;29;20040;-74
2023/01/14 16:02:40;;;;;;;12.93;3.05;;;13.80;52.80;;;;;;6095687;29;20059;-73
2023/01/14 16:05:41;;;;;;;8.82;3.30;;;13.70;52.90;;;;;;5979532;29;20457;-74
2023/01/14 16:08:45;;;;;;;6.60;2.63;;;13.70;52.90;;;;;;5979134;29;20051;-73
2023/01/14 16:11:51;;;;;;;5.88;3.25;;;13.60;52.80;;;;;;5979152;29;20100;-73
2023/01/14 16:14:52;;;;;;;11.90;3.88;;;13.60;52.90;;;;;;5976881;29;20087;-73
2023/01/14 16:18:05;;;;;;;12.35;3.42;;;13.60;52.90;;;;;;5978796;29;20046;-74
2023/01/14 16:21:09;;;;;;;8.35;3.72;;;13.50;53.00;;;;;;5979344;29;20522;-73
2023/01/14 16:24:10;;;;;;;9.95;3.10;;;13.50;53.00;;;;;;5963897;29;20123;-74
2023/01/14 16:27:21;;;;;;;9.07;3.33;;;13.40;53.10;;;;;;5961228;29;20075;-74
2023/01/14 16:30:23;;;;;;;9.00;3.15;;;13.40;53.10;;;;;;5977792;29;20127;-73
2023/01/14 16:33:25;;;;;;;12.57;3.88;;;13.40;53.10;;;;;;5963923;29;20175;-74
2023/01/14 16:36:27;;;;;;;6.88;3.55;;;13.40;53.20;;;;;;5968644;29;20038;-73
2023/01/14 16:39:28;;;;;;;11.52;3.15;;;13.40;53.20;;;;;;5964530;29;20099;-73
2023/01/14 16:42:29;;;;;;;19.15;4.60;;;13.40;53.30;;;;;;6058054;29;20123;-74
2023/01/14 16:45:30;;;;;;;15.60;3.97;;;13.40;53.30;;;;;;6101534;29;20072;-73
2023/01/14 16:48:31;;;;;;;10.13;4.53;;;13.40;53.40;;;;;;6082846;29;20094;-73